Time;durP1;ratioP1;P1;durP2;ratioP2;P2;SDS_P1;SDS_P2;PMS_P1;PMS_P2;Temp;Humidity;BMP_temperature;BMP_pressure;BME280_temperature;BME280_humidity;BME280_pressure;Samples;Min_cycle;Max_cycle;Signal;HPM_P1;HPM_P2
2023/08/22 00:00:04;;;;;;;3.88;2.25;;;21.30;99.90;;;21.85;100.00;101385.94;5142782;28;20043;-69
2023/08/22 00:02:44;;;;;;;5.47;2.50;;;21.30;99.90;;;21.83;100.00;101384.16;5143869;28;20047;-69
2023/08/22 00:05:16;;;;;;;4.05;2.22;;;21.30;99.90;;;21.79;100.00;101385.94;5143415;28;20038;-69
2023/08/22 00:07:51;;;;;;;4.70;2.35;;;21.30;99.90;;;21.74;100.00;101378.88;5140560;28;20387;-69
2023/08/22 00:10:23;;;;;;;2.88;2.40;;;21.30;99.90;;;21.70;100.00;101380.63;5146420;28;20045;-69
2023/08/22 00:12:55;;;;;;;3.55;2.70;;;21.20;99.90;;;21.65;100.00;101393.03;5144869;28;20042;-69
2023/08/22 00:15:28;;;;;;;3.13;2.38;;;21.10;99.90;;;21.59;100.00;101393.94;5145745;28;20043;-69
2023/08/22 00:18:00;;;;;;;4.47;2.22;;;21.10;99.90;;;21.54;100.00;101390.38;5145158;28;20055;-68
2023/08/22 00:20:32;;;;;;;3.25;2.38;;;21.00;99.90;;;21.51;100.00;101382.41;5144605;28;20070;-69
2023/08/22 00:23:06;;;;;;;3.28;2.35;;;21.00;99.90;;;21.50;100.00;101379.78;5146350;28;20131;-68
2023/08/22 00:25:38;;;;;;;3.63;1.98;;;21.00;99.90;;;21.50;100.00;101382.44;5142741;28;20045;-69
2023/08/22 00:28:10;;;;;;;4.40;2.65;;;21.00;99.90;;;21.51;100.00;101384.19;5144657;28;20450;-69
2023/08/22 00:30:42;;;;;;;3.67;2.30;;;21.00;99.90;;;21.52;100.00;101375.38;5145937;28;20409;-69
2023/08/22 00:33:14;;;;;;;3.28;2.20;;;21.00;99.90;;;21.54;100.00;101378.91;5143209;28;20055;-69
2023/08/22 00:35:46;;;;;;;3.05;2.20;;;21.00;99.90;;;21.57;100.00;101385.06;5142276;28;20563;-69
2023/08/22 00:38:20;;;;;;;3.42;2.50;;;21.00;99.90;;;21.58;100.00;101383.28;5143465;28;20038;-69
2023/08/22 00:40:52;;;;;;;4.57;2.50;;;21.00;99.90;;;21.58;100.00;101380.66;5146951;28;20042;-69
2023/08/22 00:43:25;;;;;;;3.60;2.40;;;21.00;99.90;;;21.57;100.00;101379.75;5145849;28;20039;-69
2023/08/22 00:45:57;;;;;;;3.05;2.30;;;21.00;99.90;;;21.56;100.00;101380.66;5142926;28;20043;-69
2023/08/22 00:48:29;;;;;;;3.70;2.53;;;21.10;99.90;;;21.57;100.00;101386.84;5143595;28;20047;-71
2023/08/22 00:51:04;;;;;;;4.53;2.45;;;21.00;99.90;;;21.56;100.00;101385.06;5144270;28;20097;-69
2023/08/22 00:53:37;;;;;;;4.03;2.22;;;21.00;99.90;;;21.54;100.00;101374.47;5154507;28;20556;-69
2023/08/22 00:56:10;;;;;;;4.88;2.67;;;21.00;99.90;;;21.54;100.00;101379.78;5142522;28;20051;-69
2023/08/22 00:58:43;;;;;;;3.85;2.70;;;21.00;99.90;;;21.55;100.00;101372.72;5141695;28;20042;-69
2023/08/22 01:01:15;;;;;;;2.80;2.08;;;21.00;99.90;;;21.56;100.00;101371.81;5142162;28;20034;-69
2023/08/22 01:03:47;;;;;;;3.63;2.47;;;21.00;99.90;;;21.59;100.00;101369.19;5141747;28;20054;-69
2023/08/22 01:06:40;;;;;;;3.17;2.15;;;21.00;99.90;;;21.61;100.00;101370.94;5141422;28;20513;-69
2023/08/22 01:09:20;;;;;;;2.30;2.10;;;21.10;99.90;;;21.62;100.00;101374.47;5141828;28;20042;-70
2023/08/22 01:12:01;;;;;;;3.88;2.40;;;21.10;99.90;;;21.59;100.00;101366.53;5141120;28;20097;-68
2023/08/22 01:14:40;;;;;;;4.32;2.45;;;21.10;99.90;;;21.57;100.00;101374.47;5142463;28;20053;-69
2023/08/22 01:17:15;;;;;;;3.28;2.60;;;21.10;99.90;;;21.56;100.00;101374.47;5142354;28;20461;-69
2023/08/22 01:19:47;;;;;;;3.35;2.38;;;21.00;99.90;;;21.55;100.00;101370.06;5142601;28;20047;-69
2023/08/22 01:22:25;;;;;;;3.63;2.53;;;21.00;99.90;;;21.54;100.00;101379.78;5142023;28;20540;-69
2023/08/22 01:24:59;;;;;;;3.40;2.70;;;21.00;99.90;;;21.54;100.00;101373.59;5141975;28;20039;-70
2023/08/22 01:27:36;;;;;;;3.45;2.58;;;21.00;99.90;;;21.55;100.00;101372.72;5140833;28;20053;-69
2023/08/22 01:30:16;;;;;;;5.18;2.45;;;21.00;99.90;;;21.54;100.00;101378.91;5143766;28;20143;-69
2023/08/22 01:32:53;;;;;;;4.68;2.30;;;21.00;99.90;;;21.53;100.00;101371.84;5139934;28;20047;-69
2023/08/22 01:35:26;;;;;;;3.42;2.50;;;21.00;99.90;;;21.52;100.00;101370.06;5146380;28;20042;-69
2023/08/22 01:38:02;;;;;;;4.03;2.30;;;21.00;99.90;;;21.52;100.00;101370.06;5143110;28;20490;-69
2023/08/22 01:40:35;;;;;;;3.55;2.20;;;21.00;99.90;;;21.52;100.00;101364.78;5139725;28;20035;-70
2023/08/22 01:43:07;;;;;;;2.83;2.10;;;21.00;99.90;;;21.53;100.00;101367.41;5141335;28;20058;-69
2023/08/22 01:45:40;;;;;;;3.65;2.50;;;21.00;99.90;;;21.52;100.00;101363.00;5141947;28;20510;-69
2023/08/22 01:48:12;;;;;;;2.95;2.33;;;21.00;99.90;;;21.52;100.00;101370.94;5140392;28;20050;-69
2023/08/22 01:50:44;;;;;;;4.43;2.50;;;21.00;99.90;;;21.48;100.00;101357.69;5139076;28;20035;-69
2023/08/22 01:53:17;;;;;;;4.78;2.50;;;21.00;99.90;;;21.47;100.00;101366.53;5141918;28;20034;-69
2023/08/22 01:55:49;;;;;;;3.50;2.45;;;21.00;99.90;;;21.45;100.00;101363.84;5141595;28;20138;-69
2023/08/22 01:58:22;;;;;;;3.78;2.33;;;20.90;99.90;;;21.42;100.00;101355.03;5142955;28;20046;-69
2023/08/22 02:00:54;;;;;;;3.58;2.30;;;20.90;99.90;;;21.38;100.00;101352.38;5148381;28;20401;-69
2023/08/22 02:03:27;;;;;;;3.65;2.30;;;21.00;99.90;;;21.37;100.00;101345.31;5148403;28;20065;-69
2023/08/22 02:05:59;;;;;;;3.65;2.13;;;20.90;99.90;;;21.33;100.00;101346.22;5157118;28;20505;-70
2023/08/22 02:08:33;;;;;;;3.15;2.22;;;20.80;99.90;;;21.31;100.00;101345.31;5148570;28;20046;-69
2023/08/22 02:11:05;;;;;;;4.38;2.40;;;20.80;99.90;;;21.27;100.00;101346.19;5141867;28;20594;-69
2023/08/22 02:13:37;;;;;;;4.50;2.53;;;20.80;99.90;;;21.21;100.00;101348.84;5142812;28;20397;-69
2023/08/22 02:16:09;;;;;;;2.95;2.38;;;20.70;99.90;;;21.14;100.00;101347.06;5141625;28;20100;-69
2023/08/22 02:18:42;;;;;;;5.53;2.85;;;20.70;99.90;;;21.09;100.00;101364.72;5142455;28;20043;-69
2023/08/22 02:21:14;;;;;;;3.65;2.45;;;20.60;99.90;;;21.03;100.00;101359.41;5141176;28;21364;-69
2023/08/22 02:23:49;;;;;;;5.60;2.58;;;20.60;99.90;;;20.98;100.00;101358.53;5139262;28;20447;-69
2023/08/22 02:26:21;;;;;;;4.00;2.30;;;20.50;99.90;;;20.92;100.00;101359.41;5142665;28;20053;-69
2023/08/22 02:28:53;;;;;;;3.83;2.60;;;20.50;99.90;;;20.88;100.00;101360.28;5142143;28;20039;-69
2023/08/22 02:31:25;;;;;;;3.13;2.20;;;20.40;99.90;;;20.86;100.00;101356.75;5143906;28;20046;-69
2023/08/22 02:33:58;;;;;;;4.55;2.65;;;20.40;99.90;;;20.82;100.00;101355.88;5142904;28;20043;-69
2023/08/22 02:36:30;;;;;;;4.80;2.85;;;20.40;99.90;;;20.82;100.00;101355.00;5142001;28;20137;-69
2023/08/22 02:39:04;;;;;;;3.55;2.55;;;20.30;99.90;;;20.84;100.00;101356.75;5139912;28;20046;-69
2023/08/22 02:41:36;;;;;;;2.88;2.28;;;20.30;99.90;;;20.86;100.00;101349.72;5141609;28;20046;-69
2023/08/22 02:44:08;;;;;;;4.57;2.50;;;20.40;99.90;;;20.86;100.00;101343.50;5140531;28;20070;-70
2023/08/22 02:46:40;;;;;;;4.15;2.60;;;20.40;99.90;;;20.85;100.00;101350.56;5142016;28;20394;-69
2023/08/22 02:49:12;;;;;;;3.17;2.40;;;20.40;99.90;;;20.80;100.00;101347.03;5140869;28;20043;-69
2023/08/22 02:51:45;;;;;;;3.70;2.50;;;20.30;99.90;;;20.73;100.00;101350.53;5141543;28;20128;-70
2023/08/22 02:54:18;;;;;;;3.85;2.55;;;20.30;99.90;;;20.68;100.00;101346.13;5151342;28;20038;-69
2023/08/22 02:56:50;;;;;;;4.85;2.53;;;20.20;99.90;;;20.61;100.00;101347.88;5153859;28;20068;-69
2023/08/22 02:59:22;;;;;;;3.30;2.22;;;20.20;99.90;;;20.55;100.00;101359.34;5157116;28;20047;-69
2023/08/22 03:01:54;;;;;;;4.47;2.63;;;20.10;99.90;;;20.50;100.00;101354.91;5153652;28;20042;-69
2023/08/22 03:04:27;;;;;;;3.33;2.50;;;20.00;99.90;;;20.46;100.00;101350.47;5143393;28;20592;-69
2023/08/22 03:06:59;;;;;;;4.18;2.53;;;20.00;99.90;;;20.42;100.00;101359.28;5143876;28;20424;-69
2023/08/22 03:09:33;;;;;;;5.25;2.70;;;20.00;99.90;;;20.39;100.00;101356.59;5141043;28;20043;-69
2023/08/22 03:12:06;;;;;;;5.45;2.58;;;20.00;99.90;;;20.35;100.00;101362.78;5139416;28;20663;-68
2023/08/22 03:14:39;;;;;;;4.75;2.50;;;19.90;99.90;;;20.31;100.00;101357.47;5156405;28;20053;-69
2023/08/22 03:17:12;;;;;;;4.10;2.65;;;19.90;99.90;;;20.30;100.00;101355.69;5175559;28;20529;-69
2023/08/22 03:19:44;;;;;;;4.57;2.85;;;19.90;99.90;;;20.31;100.00;101354.81;5154557;28;20517;-69
2023/08/22 03:22:17;;;;;;;4.75;2.60;;;19.90;99.90;;;20.30;100.00;101353.06;5146643;28;20149;-68
2023/08/22 03:24:51;;;;;;;4.50;2.90;;;19.80;99.90;;;20.29;100.00;101353.06;5147359;28;20042;-70
2023/08/22 03:27:25;;;;;;;4.28;2.70;;;19.80;99.90;;;20.24;100.00;101360.97;5147234;28;20039;-69
2023/08/22 03:29:57;;;;;;;5.53;2.78;;;19.80;99.90;;;20.19;100.00;101360.06;5153810;28;20066;-69
2023/08/22 03:32:29;;;;;;;5.22;2.42;;;19.80;99.90;;;20.15;100.00;101360.94;5156005;28;20130;-68
2023/08/22 03:35:05;;;;;;;4.25;2.58;;;19.70;99.90;;;20.12;100.00;101352.97;5147015;28;20065;-68
2023/08/22 03:37:40;;;;;;;3.95;2.55;;;19.70;99.90;;;20.10;100.00;101357.38;5151330;28;20049;-68
2023/08/22 03:40:14;;;;;;;3.50;2.55;;;19.70;99.90;;;20.08;100.00;101353.81;5143787;28;20046;-69
2023/08/22 03:42:47;;;;;;;4.53;2.53;;;19.60;99.90;;;20.05;100.00;101348.53;5143188;28;20047;-69
2023/08/22 03:45:19;;;;;;;4.63;2.53;;;19.60;99.90;;;20.04;100.00;101342.34;5150861;28;20096;-69
2023/08/22 03:47:53;;;;;;;4.32;2.72;;;19.60;99.90;;;20.05;100.00;101346.75;5173124;28;20310;-69
2023/08/22 03:50:25;;;;;;;4.55;2.60;;;19.60;99.90;;;20.06;100.00;101339.72;5152256;28;20518;-68
2023/08/22 03:52:57;;;;;;;5.20;3.00;;;19.60;99.90;;;20.08;100.00;101335.28;5156587;28;20137;-69
2023/08/22 03:55:31;;;;;;;4.68;2.85;;;19.70;99.90;;;20.07;100.00;101333.53;5151964;28;20070;-69
2023/08/22 03:58:04;;;;;;;4.40;2.60;;;19.70;99.90;;;20.04;100.00;101330.88;5159139;28;20046;-69
2023/08/22 04:00:36;;;;;;;3.75;2.75;;;19.60;99.90;;;20.03;100.00;101337.94;5146375;28;20100;-69
2023/08/22 04:03:09;;;;;;;4.45;2.85;;;19.60;99.90;;;20.05;100.00;101344.13;5154854;28;20070;-69
2023/08/22 04:05:42;;;;;;;4.22;2.72;;;19.60;99.90;;;20.04;100.00;101338.81;5158518;28;20047;-68
2023/08/22 04:08:14;;;;;;;4.00;2.67;;;19.60;99.90;;;20.03;100.00;101339.72;5151833;28;20382;-69
2023/08/22 04:10:49;;;;;;;3.42;2.53;;;19.60;99.90;;;20.03;100.00;101347.66;5157315;28;20074;-70
2023/08/22 04:13:22;;;;;;;6.97;3.30;;;19.60;99.90;;;20.03;100.00;101343.22;5143408;28;20065;-69
2023/08/22 04:15:54;;;;;;;4.95;3.10;;;19.60;99.90;;;20.01;100.00;101346.72;5149215;28;20043;-69
2023/08/22 04:18:26;;;;;;;3.85;2.83;;;19.60;99.90;;;19.99;100.00;101351.13;5151193;28;20129;-68
2023/08/22 04:20:58;;;;;;;4.60;2.92;;;19.60;99.90;;;19.97;100.00;101351.13;5141955;28;20290;-69
2023/08/22 04:23:30;;;;;;;4.82;2.80;;;19.60;99.90;;;19.94;100.00;101356.41;5160062;28;20104;-69
2023/08/22 04:26:04;;;;;;;4.85;2.92;;;19.60;99.90;;;19.91;100.00;101358.16;5155599;28;20061;-70
2023/08/22 04:28:37;;;;;;;4.50;2.78;;;19.50;99.90;;;19.91;100.00;101355.50;5161131;28;20046;-70
2023/08/22 04:31:09;;;;;;;3.70;2.72;;;19.50;99.90;;;19.90;100.00;101359.03;5153619;28;20097;-69
2023/08/22 04:33:42;;;;;;;5.07;3.20;;;19.50;99.90;;;19.86;100.00;101362.53;5144232;28;20042;-69
2023/08/22 04:36:15;;;;;;;4.97;3.45;;;19.50;99.90;;;19.84;100.00;101364.28;5169103;28;20138;-69
2023/08/22 04:38:49;;;;;;;5.05;3.08;;;19.40;99.90;;;19.81;100.00;101370.44;5153945;28;20039;-69
2023/08/22 04:41:24;;;;;;;4.75;3.08;;;19.40;99.90;;;19.82;100.00;101366.91;5153179;28;20069;-69
2023/08/22 04:44:16;;;;;;;4.35;2.60;;;19.40;99.90;;;19.78;100.00;101362.50;5161460;28;20477;-68
2023/08/22 04:46:48;;;;;;;3.75;2.85;;;19.40;99.90;;;19.76;100.00;101357.22;5146707;28;20038;-69
2023/08/22 04:49:20;;;;;;;4.93;2.80;;;19.30;99.90;;;19.77;100.00;101358.97;5144807;28;20047;-69
2023/08/22 04:51:53;;;;;;;4.90;2.90;;;19.30;99.90;;;19.76;100.00;101356.31;5148175;28;20062;-69
2023/08/22 04:54:25;;;;;;;4.63;2.72;;;19.40;99.90;;;19.75;100.00;101350.13;5149717;28;20492;-69
2023/08/22 04:56:59;;;;;;;5.40;2.85;;;19.30;99.90;;;19.77;100.00;101358.97;5148450;28;20084;-69
2023/08/22 04:59:31;;;;;;;3.75;2.60;;;19.40;99.90;;;19.76;100.00;101351.91;5162941;28;20061;-69
2023/08/22 05:02:03;;;;;;;4.88;3.10;;;19.40;99.90;;;19.76;100.00;101351.03;5151325;28;20070;-69
2023/08/22 05:04:37;;;;;;;5.43;3.00;;;19.30;99.90;;;19.77;100.00;101353.69;5146262;28;20129;-69
2023/08/22 05:07:09;;;;;;;4.25;3.15;;;19.40;99.90;;;19.78;100.00;101352.81;5147770;28;20070;-69
2023/08/22 05:09:41;;;;;;;6.65;2.92;;;19.30;99.90;;;19.83;100.00;101358.13;5164794;28;20110;-69
2023/08/22 05:12:15;;;;;;;4.60;3.15;;;19.40;99.90;;;19.89;100.00;101359.94;5169296;28;20137;-68
2023/08/22 05:14:48;;;;;;;8.23;3.53;;;19.50;99.90;;;19.92;100.00;101358.16;5133706;28;20047;-69
2023/08/22 05:17:21;;;;;;;6.15;3.25;;;19.50;99.90;;;19.95;100.00;101360.84;5140050;28;20077;-69
2023/08/22 05:19:53;;;;;;;6.22;3.13;;;19.60;99.90;;;20.02;100.00;101359.13;5148900;28;20505;-69
2023/08/22 05:22:26;;;;;;;6.15;3.35;;;19.60;99.90;;;20.12;100.00;101355.63;5152487;28;20081;-68
2023/08/22 05:24:58;;;;;;;6.55;3.63;;;19.70;99.90;;;20.28;100.00;101360.13;5155744;28;20070;-70
2023/08/22 05:27:31;;;;;;;6.30;3.67;;;19.80;99.90;;;20.47;100.00;101369.00;5142452;28;20055;-68
2023/08/22 05:30:05;;;;;;;7.38;4.30;;;20.00;99.90;;;20.67;100.00;101370.84;5146989;28;20042;-69
2023/08/22 05:32:39;;;;;;;;;;;20.20;99.90;;;20.90;100.00;101378.84;5148942;28;20142;-69
2023/08/22 05:35:11;;;;;;;5.93;3.75;;;20.30;99.90;;;21.17;100.00;101372.69;5156105;28;20084;-69
2023/08/22 05:37:44;;;;;;;8.98;3.80;;;20.60;99.90;;;21.43;100.00;101370.06;5152285;28;20045;-69
2023/08/22 05:40:16;;;;;;;10.20;4.00;;;20.80;99.90;;;21.68;100.00;101369.16;5146526;28;20047;-69
2023/08/22 05:42:51;;;;;;;6.28;3.60;;;21.00;99.90;;;21.94;100.00;101375.28;5160335;28;20066;-69
2023/08/22 05:45:23;;;;;;;5.97;3.83;;;21.30;99.90;;;22.20;100.00;101372.56;5152061;28;20073;-68
2023/08/22 05:47:57;;;;;;;7.45;3.63;;;21.60;99.90;;;22.55;100.00;101375.94;5153688;28;20572;-69
2023/08/22 05:50:29;;;;;;;7.93;3.85;;;21.90;99.90;;;22.83;100.00;101377.56;5150502;28;20079;-69
2023/08/22 05:53:01;;;;;;;6.32;3.00;;;22.20;99.90;;;23.01;100.00;101372.13;5140454;28;20050;-69
2023/08/22 05:55:33;;;;;;;5.45;3.20;;;22.40;99.90;;;23.26;100.00;101374.59;5156273;28;20479;-69
2023/08/22 05:58:07;;;;;;;7.63;3.60;;;22.60;99.90;;;23.55;100.00;101383.22;5148616;28;20046;-69
2023/08/22 06:00:39;;;;;;;7.03;3.30;;;22.90;99.90;;;23.85;100.00;101381.16;5147760;28;20532;-69
2023/08/22 06:03:11;;;;;;;8.07;3.33;;;23.20;99.90;;;24.14;100.00;101390.63;5154936;28;20137;-69
2023/08/22 06:05:44;;;;;;;7.40;3.65;;;23.50;99.90;;;24.45;100.00;101397.38;5151509;28;20080;-59
2023/08/22 06:08:17;;;;;;;7.00;3.33;;;23.70;99.90;;;24.68;100.00;101394.41;5154030;28;20565;-60
2023/08/22 06:10:50;;;;;;;5.82;3.28;;;23.90;99.90;;;24.89;100.00;101386.06;5147788;28;20494;-60
2023/08/22 06:13:24;;;;;;;6.85;3.15;;;24.20;99.90;;;25.01;100.00;101387.69;5140034;28;20054;-61
2023/08/22 06:15:57;;;;;;;;;;;24.30;99.90;;;25.14;100.00;101386.63;5140770;28;20053;-60
2023/08/22 06:18:29;;;;;;;8.65;3.72;;;24.40;99.90;;;25.28;100.00;101377.50;5156766;28;19951;-60
2023/08/22 06:21:01;;;;;;;7.68;3.30;;;24.60;99.90;;;;;;5159746;28;20050;-59
2023/08/22 06:23:33;;;;;;;5.55;2.88;;;24.70;99.90;;;25.43;100.00;101388.81;5143382;28;20050;-59
2023/08/22 06:26:06;;;;;;;7.35;3.22;;;24.80;99.90;;;25.51;100.00;101386.00;5155624;28;20125;-59
2023/08/22 06:28:39;;;;;;;7.25;3.55;;;24.90;99.90;;;25.65;100.00;101383.97;5149395;28;20501;-59
2023/08/22 06:31:12;;;;;;;6.53;3.20;;;24.90;99.90;;;25.83;100.00;101377.44;5147618;28;20139;-58
2023/08/22 06:33:46;;;;;;;5.55;3.10;;;25.10;99.90;;;25.86;100.00;101384.50;5174298;28;20517;-60
2023/08/22 06:36:18;;;;;;;6.60;3.22;;;25.20;99.90;;;25.66;100.00;101380.38;5159619;28;20517;-61
2023/08/22 06:38:52;;;;;;;8.13;3.45;;;25.10;99.90;;;25.46;100.00;101387.88;5151692;28;20054;-60
2023/08/22 06:41:24;;;;;;;4.30;2.95;;;25.00;99.90;;;25.25;100.00;101388.25;5143322;28;20134;-60
2023/08/22 06:44:00;;;;;;;5.32;2.63;;;24.80;99.90;;;25.19;100.00;101393.69;5160167;28;20070;-61
2023/08/22 06:46:32;;;;;;;5.00;2.80;;;24.70;99.90;;;25.15;100.00;101401.72;5151327;28;20051;-60
2023/08/22 06:49:05;;;;;;;4.47;2.97;;;24.60;99.90;;;25.19;100.00;101404.34;5146286;28;20055;-60
2023/08/22 06:51:37;;;;;;;6.38;3.60;;;24.60;99.90;;;25.25;100.00;101394.47;5140513;28;20468;-61
2023/08/22 06:54:09;;;;;;;5.78;2.90;;;24.60;99.90;;;25.34;100.00;101391.63;5140714;28;20421;-61
2023/08/22 06:56:41;;;;;;;8.98;3.05;;;24.70;99.90;;;25.50;100.00;101394.94;5155359;28;20054;-61
2023/08/22 06:59:14;;;;;;;9.80;3.90;;;24.70;99.90;;;25.61;100.00;101400.06;5139678;28;20047;-60
2023/08/22 07:01:46;;;;;;;8.38;3.78;;;24.80;99.90;;;25.49;100.00;101393.13;5148677;28;20043;-60
2023/08/22 07:04:18;;;;;;;10.05;3.85;;;24.70;99.90;;;25.27;100.00;101400.63;5156032;28;20051;-60
2023/08/22 07:06:51;;;;;;;6.65;3.47;;;24.60;99.90;;;25.16;100.00;101402.59;5144355;28;20136;-60
2023/08/22 07:09:23;;;;;;;8.15;4.10;;;24.50;99.90;;;25.08;100.00;101401.84;5151629;28;20061;-61
2023/08/22 07:11:55;;;;;;;7.68;3.50;;;24.40;99.90;;;25.03;100.00;101399.19;5140551;28;20042;-61
2023/08/22 07:14:29;;;;;;;7.65;3.65;;;24.40;99.90;;;25.06;100.00;101409.00;5143076;28;20124;-62
2023/08/22 07:17:01;;;;;;;5.18;3.28;;;24.30;99.90;;;25.20;100.00;101415.00;5151310;28;20492;-58
2023/08/22 07:19:33;;;;;;;8.10;3.92;;;24.40;99.90;;;25.33;100.00;101410.34;5148474;28;20081;-58
2023/08/22 07:22:05;;;;;;;5.07;3.00;;;24.50;99.90;;;25.38;100.00;101409.34;5158968;28;20047;-58
2023/08/22 07:24:37;;;;;;;6.93;3.72;;;24.60;99.90;;;25.36;100.00;101407.59;5144146;28;20442;-58
2023/08/22 07:27:11;;;;;;;7.75;4.00;;;24.60;99.90;;;25.44;100.00;101408.38;5158790;28;20485;-61
2023/08/22 07:29:45;;;;;;;10.18;4.75;;;24.60;99.90;;;25.59;100.00;101409.91;5156042;28;20414;-61
2023/08/22 07:32:18;;;;;;;8.98;4.35;;;24.70;99.90;;;25.69;100.00;101407.03;5147500;28;20043;-60
2023/08/22 07:34:51;;;;;;;7.95;4.25;;;24.80;99.90;;;25.89;100.00;101400.50;5142589;28;20047;-59
2023/08/22 07:37:23;;;;;;;9.85;4.25;;;24.90;99.90;;;26.13;100.00;101402.66;5151161;28;20043;-59
2023/08/22 07:39:57;;;;;;;8.68;4.05;;;25.10;99.90;;;26.27;100.00;101409.50;5138235;28;20050;-57
2023/08/22 07:42:29;;;;;;;8.15;4.20;;;25.20;99.90;;;26.24;100.00;101408.69;5141178;28;20047;-58
2023/08/22 07:45:03;;;;;;;8.23;4.35;;;25.20;99.90;;;26.06;100.00;101408.16;5147069;28;20065;-57
2023/08/22 07:47:36;;;;;;;7.43;4.35;;;25.10;99.90;;;25.98;100.00;101402.97;5143055;28;20062;-58
2023/08/22 07:50:09;;;;;;;6.90;4.03;;;25.10;99.90;;;26.12;100.00;101414.25;5146237;28;20047;-58
2023/08/22 07:52:41;;;;;;;10.25;4.55;;;25.20;99.90;;;26.32;100.00;101412.97;5141888;28;20413;-58
2023/08/22 07:55:13;;;;;;;11.38;4.70;;;25.30;99.90;;;26.54;100.00;101417.00;5148023;28;20209;-57
2023/08/22 07:57:45;;;;;;;9.38;4.35;;;25.50;99.90;;;26.68;99.83;101422.06;5141202;28;20126;-58
2023/08/22 08:00:19;;;;;;;9.82;4.07;;;25.60;99.90;;;26.84;99.10;101428.81;5139413;28;20118;-57
2023/08/22 08:02:52;;;;;;;8.52;4.60;;;25.70;99.90;;;26.97;97.73;101418.72;5158021;28;20441;-57
2023/08/22 08:05:26;;;;;;;7.45;4.10;;;25.80;99.90;;;27.15;97.77;101429.03;5162240;28;20517;-57
2023/08/22 08:07:58;;;;;;;9.68;4.13;;;25.90;99.90;;;27.46;96.96;101425.59;5147497;28;20494;-57
2023/08/22 08:10:30;;;;;;;7.60;4.85;;;26.10;99.90;;;27.80;95.26;101434.53;5156525;28;20502;-59
2023/08/22 08:13:02;;;;;;;8.52;4.20;;;26.40;99.90;;;27.95;94.34;101427.00;5137040;28;20057;-58
2023/08/22 08:15:36;;;;;;;8.93;3.83;;;26.50;99.90;;;28.17;93.43;101432.63;5133346;28;20470;-58
2023/08/22 08:18:10;;;;;;;7.20;3.35;;;26.60;99.90;;;28.60;92.43;101435.88;5136749;28;20043;-59
2023/08/22 08:20:42;;;;;;;10.57;4.00;;;26.90;99.90;;;29.04;90.46;101443.53;5158642;28;20117;-58
2023/08/22 08:23:14;;;;;;;6.50;3.70;;;27.10;99.90;;;29.16;89.70;101435.09;5144153;28;20436;-58
2023/08/22 08:25:46;;;;;;;8.13;3.25;;;27.30;99.90;;;29.51;89.45;101443.78;5149421;28;20046;-59
2023/08/22 08:28:18;;;;;;;6.20;3.65;;;27.50;99.90;;;29.82;87.89;101439.13;5141483;28;20401;-58
2023/08/22 08:30:52;;;;;;;6.72;3.35;;;27.70;99.90;;;29.94;86.59;101446.75;5135676;28;20805;-58
2023/08/22 08:33:24;;;;;;;6.05;3.42;;;27.80;99.80;;;29.92;85.87;101445.91;5156315;28;20051;-59
2023/08/22 08:35:56;;;;;;;7.40;3.20;;;27.90;99.30;;;30.02;85.30;101442.94;5150746;28;20429;-58
2023/08/22 08:38:28;;;;;;;7.10;3.30;;;27.90;99.10;;;30.38;84.33;101443.41;5134596;28;20043;-59
2023/08/22 08:41:03;;;;;;;7.70;3.30;;;28.10;98.80;;;30.26;84.96;101445.63;5129010;28;20049;-58
2023/08/22 08:43:35;;;;;;;4.90;3.17;;;28.20;98.70;;;30.34;85.21;101437.28;5154890;28;20046;-59
2023/08/22 08:46:10;;;;;;;5.25;2.83;;;28.30;98.80;;;30.77;84.10;101432.97;5160710;28;20057;-58
2023/08/22 08:48:43;;;;;;;6.90;3.10;;;28.60;98.40;;;31.36;82.31;101440.47;5135582;28;20042;-59
2023/08/22 08:51:16;;;;;;;6.35;2.75;;;29.00;97.90;;;31.63;81.16;101443.84;5146948;28;20437;-59
2023/08/22 08:53:49;;;;;;;11.68;3.53;;;29.30;97.30;;;31.55;79.54;101452.22;5144497;28;20413;-58
2023/08/22 08:56:21;;;;;;;6.50;3.00;;;29.40;96.40;;;31.64;79.59;101445.59;5128364;28;20051;-65
2023/08/22 08:58:54;;;;;;;6.45;3.33;;;29.40;96.20;;;31.69;79.55;101448.06;5122658;28;20051;-65
2023/08/22 09:01:27;;;;;;;6.88;3.33;;;29.50;96.10;;;31.87;79.52;101453.56;5123946;28;21766;-63
2023/08/22 09:04:01;;;;;;;7.00;2.83;;;29.60;96.00;;;32.05;79.34;101454.59;5130076;28;20050;-59
2023/08/22 09:06:33;;;;;;;7.80;3.10;;;29.80;95.90;;;31.98;78.69;101452.22;5132746;28;20495;-61
2023/08/22 09:09:08;;;;;;;6.10;3.00;;;29.90;95.40;;;31.66;79.28;101450.91;5134016;28;20055;-61
2023/08/22 09:11:43;;;;;;;5.03;2.60;;;29.80;95.10;;;31.27;80.38;101447.13;5141077;28;20046;-60
2023/08/22 09:14:19;;;;;;;7.25;3.58;;;29.60;95.20;;;30.83;80.63;101451.56;5152526;28;20332;-58
2023/08/22 09:16:53;;;;;;;4.03;2.60;;;29.30;95.10;;;30.38;80.44;101449.66;5137691;28;20053;-60
2023/08/22 09:19:25;;;;;;;3.47;2.05;;;29.00;94.70;;;30.12;82.05;101452.44;5154429;28;20039;-59
2023/08/22 09:21:58;;;;;;;6.60;2.58;;;28.80;95.10;;;30.20;82.04;101453.06;5149182;28;20507;-59
2023/08/22 09:24:32;;;;;;;5.38;2.25;;;28.80;95.20;;;30.50;81.48;101451.88;5144750;28;20057;-59
2023/08/22 09:27:05;;;;;;;;;;;29.00;95.10;;;30.67;80.83;101455.78;5140845;28;20046;-60
2023/08/22 09:29:37;;;;;;;6.72;2.70;;;29.30;94.70;;;30.78;80.70;101454.47;5136434;28;20266;-60
2023/08/22 09:32:10;;;;;;;5.28;2.58;;;29.40;94.40;;;30.69;80.10;101448.53;5135952;28;20042;-59
2023/08/22 09:34:54;;;;;;;5.47;2.80;;;29.40;94.00;;;30.66;81.08;101451.31;5160635;28;20053;-60
2023/08/22 09:37:33;;;;;;;4.47;2.53;;;29.50;94.20;;;30.65;81.10;101452.28;5161377;28;20062;-59
2023/08/22 09:40:10;;;;;;;6.05;2.97;;;29.50;94.20;;;30.73;81.84;101451.06;5157508;28;20047;-59
2023/08/22 09:42:43;;;;;;;4.50;2.70;;;29.60;94.40;;;30.77;81.52;101446.41;5142043;28;20039;-61
2023/08/22 09:45:19;;;;;;;6.88;2.92;;;29.60;94.20;;;30.74;81.22;101435.78;5138067;28;20054;-59
2023/08/22 09:47:57;;;;;;;5.25;2.35;;;29.60;94.00;;;30.56;80.58;101442.72;5158207;28;20050;-59
2023/08/22 09:50:37;;;;;;;3.92;2.58;;;29.50;93.60;;;30.42;81.54;101440.56;5152815;28;20053;-59
2023/08/22 09:53:11;;;;;;;6.47;2.95;;;29.30;93.80;;;30.50;82.23;101442.94;5141817;28;20117;-59
2023/08/22 09:55:43;;;;;;;;;;;29.40;94.20;;;30.60;81.04;101440.81;5154515;28;20379;-60
2023/08/22 09:58:16;;;;;;;7.60;2.80;;;29.40;93.70;;;30.67;80.09;101435.16;5161283;28;19929;-59
2023/08/22 10:00:51;;;;;;;10.60;4.00;;;29.50;93.40;;;30.70;80.63;101437.69;5144920;28;20319;-59
2023/08/22 10:03:26;;;;;;;9.13;3.40;;;29.50;93.40;;;30.67;80.12;101434.25;5149666;28;20113;-58
2023/08/22 10:05:59;;;;;;;6.10;2.13;;;29.50;93.20;;;30.70;78.53;101434.13;5161187;28;20153;-59
2023/08/22 10:08:31;;;;;;;6.03;2.30;;;29.60;92.60;;;30.90;77.16;101439.63;5146771;28;20061;-60
2023/08/22 10:11:03;;;;;;;4.70;2.10;;;29.60;92.20;;;31.13;75.25;101435.13;5147664;28;20062;-61
2023/08/22 10:13:38;;;;;;;6.60;1.98;;;29.80;91.60;;;31.10;74.67;101421.78;5149127;28;20046;-63
2023/08/22 10:16:10;;;;;;;4.88;2.33;;;29.90;90.90;;;30.88;74.90;101421.78;5153522;28;20057;-59
2023/08/22 10:18:45;;;;;;;4.22;2.25;;;29.80;90.80;;;30.49;74.75;101423.25;5144854;28;20459;-60
2023/08/22 10:21:17;;;;;;;4.07;1.90;;;29.50;90.50;;;30.28;75.19;101416.00;5154596;28;20063;-59
2023/08/22 10:23:57;;;;;;;4.88;1.92;;;29.40;90.60;;;30.26;75.32;101416.06;5148448;28;20042;-60
2023/08/22 10:26:48;;;;;;;2.00;1.77;;;29.30;90.50;;;30.22;75.70;101411.72;5132081;28;20047;-60
2023/08/22 10:29:20;;;;;;;2.90;1.90;;;29.20;90.50;;;30.10;75.64;101411.28;5133807;28;20046;-60
2023/08/22 10:32:20;;;;;;;4.20;1.90;;;29.10;90.40;;;30.04;75.30;101403.41;5146776;28;20117;-60